Terminal Aerodrome Forecast
Issued by NWS Norman, OK

Home | Current Version | Previous Version | Text Only | Print | Product List | Glossary On
Versions: 1 2 3 4 5 6 7 8 9 10 11 12 13 14 15 16 17 18 19 20 21 22 23 24 25 26 27 28
000
FTUS44 KOUN 260845 AAA
TAFSPS
TAF AMD
KSPS 260845Z 2609/2706 18004KT 1SM BR SCT002
      TEMPO 2610/2612 1/4SM FG VV002
     FM261500 18013KT P6SM BKN030
      TEMPO 2622/2702 5SM -TSRA OVC015CB
     FM270200 17012KT P6SM BKN030
      TEMPO 2702/2705 6SM -TSRA OVC015CB=

USA.gov is the U.S. government's official web portal to all federal, state and local government web resources and services.